sensor_id;sensor_type;location;lat;lon;timestamp;P1;durP1;ratioP1;P2;durP2;ratioP2
22628;SDS011;11481;53.694;9.910;2024-01-11T00:01:50;32.40;;;14.95;;
22628;SDS011;11481;53.694;9.910;2024-01-11T00:04:17;29.08;;;14.65;;
22628;SDS011;11481;53.694;9.910;2024-01-11T00:06:44;27.80;;;14.73;;
22628;SDS011;11481;53.694;9.910;2024-01-11T00:09:11;27.45;;;14.88;;
22628;SDS011;11481;53.694;9.910;2024-01-11T00:11:38;32.83;;;15.38;;
22628;SDS011;11481;53.694;9.910;2024-01-11T00:14:05;36.83;;;16.58;;
22628;SDS011;11481;53.694;9.910;2024-01-11T00:16:32;34.25;;;14.88;;
22628;SDS011;11481;53.694;9.910;2024-01-11T00:18:59;31.50;;;15.88;;
22628;SDS011;11481;53.694;9.910;2024-01-11T00:21:26;35.55;;;15.63;;
22628;SDS011;11481;53.694;9.910;2024-01-11T00:23:53;29.00;;;15.15;;
22628;SDS011;11481;53.694;9.910;2024-01-11T00:26:19;32.22;;;16.45;;
22628;SDS011;11481;53.694;9.910;2024-01-11T00:28:46;30.85;;;14.95;;
22628;SDS011;11481;53.694;9.910;2024-01-11T00:31:13;32.17;;;14.85;;
22628;SDS011;11481;53.694;9.910;2024-01-11T00:33:40;34.70;;;16.98;;
22628;SDS011;11481;53.694;9.910;2024-01-11T00:36:07;38.30;;;17.33;;
22628;SDS011;11481;53.694;9.910;2024-01-11T00:38:34;35.83;;;16.02;;
22628;SDS011;11481;53.694;9.910;2024-01-11T00:41:01;37.83;;;17.33;;
22628;SDS011;11481;53.694;9.910;2024-01-11T00:43:28;37.40;;;17.83;;
22628;SDS011;11481;53.694;9.910;2024-01-11T00:45:55;37.92;;;17.83;;
22628;SDS011;11481;53.694;9.910;2024-01-11T00:48:21;40.33;;;18.60;;
22628;SDS011;11481;53.694;9.910;2024-01-11T00:50:49;38.10;;;17.60;;
22628;SDS011;11481;53.694;9.910;2024-01-11T00:53:15;37.65;;;20.00;;
22628;SDS011;11481;53.694;9.910;2024-01-11T00:55:43;40.10;;;18.88;;
22628;SDS011;11481;53.694;9.910;2024-01-11T00:58:09;43.97;;;20.00;;
22628;SDS011;11481;53.694;9.910;2024-01-11T01:00:36;45.08;;;19.83;;
22628;SDS011;11481;53.694;9.910;2024-01-11T01:03:03;40.78;;;18.67;;
22628;SDS011;11481;53.694;9.910;2024-01-11T01:05:30;43.78;;;18.45;;
22628;SDS011;11481;53.694;9.910;2024-01-11T01:07:58;40.40;;;17.73;;
22628;SDS011;11481;53.694;9.910;2024-01-11T01:10:24;40.85;;;17.70;;
22628;SDS011;11481;53.694;9.910;2024-01-11T01:12:51;39.25;;;19.15;;
22628;SDS011;11481;53.694;9.910;2024-01-11T01:15:18;40.72;;;19.10;;
22628;SDS011;11481;53.694;9.910;2024-01-11T01:17:45;40.10;;;18.02;;
22628;SDS011;11481;53.694;9.910;2024-01-11T01:20:12;47.92;;;20.00;;
22628;SDS011;11481;53.694;9.910;2024-01-11T01:22:39;44.15;;;18.85;;
22628;SDS011;11481;53.694;9.910;2024-01-11T01:25:06;40.92;;;17.95;;
22628;SDS011;11481;53.694;9.910;2024-01-11T01:27:33;43.92;;;19.23;;
22628;SDS011;11481;53.694;9.910;2024-01-11T01:29:59;38.90;;;19.52;;
22628;SDS011;11481;53.694;9.910;2024-01-11T01:32:26;50.58;;;18.58;;
22628;SDS011;11481;53.694;9.910;2024-01-11T01:34:53;45.80;;;18.65;;
22628;SDS011;11481;53.694;9.910;2024-01-11T01:37:20;43.97;;;19.17;;
22628;SDS011;11481;53.694;9.910;2024-01-11T01:39:47;46.92;;;18.23;;
22628;SDS011;11481;53.694;9.910;2024-01-11T01:42:14;40.63;;;18.13;;
22628;SDS011;11481;53.694;9.910;2024-01-11T01:44:41;48.70;;;18.95;;
22628;SDS011;11481;53.694;9.910;2024-01-11T01:47:08;43.92;;;19.00;;
22628;SDS011;11481;53.694;9.910;2024-01-11T01:49:36;43.13;;;18.02;;
22628;SDS011;11481;53.694;9.910;2024-01-11T01:52:03;45.92;;;19.60;;
22628;SDS011;11481;53.694;9.910;2024-01-11T01:54:32;40.90;;;17.83;;
22628;SDS011;11481;53.694;9.910;2024-01-11T01:57:01;50.75;;;19.90;;
22628;SDS011;11481;53.694;9.910;2024-01-11T01:59:30;47.08;;;18.60;;
22628;SDS011;11481;53.694;9.910;2024-01-11T02:01:57;42.90;;;18.92;;
22628;SDS011;11481;53.694;9.910;2024-01-11T02:04:24;37.53;;;17.67;;
22628;SDS011;11481;53.694;9.910;2024-01-11T02:06:51;46.78;;;19.23;;
22628;SDS011;11481;53.694;9.910;2024-01-11T02:09:20;49.00;;;18.83;;
22628;SDS011;11481;53.694;9.910;2024-01-11T02:11:48;49.47;;;19.95;;
22628;SDS011;11481;53.694;9.910;2024-01-11T02:14:20;44.83;;;19.15;;
22628;SDS011;11481;53.694;9.910;2024-01-11T02:16:47;44.22;;;18.77;;
22628;SDS011;11481;53.694;9.910;2024-01-11T02:19:14;48.72;;;19.10;;
22628;SDS011;11481;53.694;9.910;2024-01-11T02:21:43;46.60;;;18.05;;
22628;SDS011;11481;53.694;9.910;2024-01-11T02:24:12;44.25;;;19.27;;
22628;SDS011;11481;53.694;9.910;2024-01-11T02:29:41;43.22;;;18.20;;
22628;SDS011;11481;53.694;9.910;2024-01-11T02:32:08;49.38;;;19.10;;
22628;SDS011;11481;53.694;9.910;2024-01-11T02:34:35;44.75;;;18.73;;
22628;SDS011;11481;53.694;9.910;2024-01-11T02:37:04;39.95;;;18.20;;
22628;SDS011;11481;53.694;9.910;2024-01-11T02:39:31;43.00;;;19.45;;
22628;SDS011;11481;53.694;9.910;2024-01-11T02:41:59;38.92;;;17.92;;
22628;SDS011;11481;53.694;9.910;2024-01-11T02:44:26;45.20;;;17.90;;
22628;SDS011;11481;53.694;9.910;2024-01-11T02:46:53;39.13;;;17.48;;
22628;SDS011;11481;53.694;9.910;2024-01-11T02:49:20;43.15;;;17.42;;
22628;SDS011;11481;53.694;9.910;2024-01-11T02:51:47;40.47;;;18.88;;
22628;SDS011;11481;53.694;9.910;2024-01-11T02:54:14;41.65;;;17.70;;
22628;SDS011;11481;53.694;9.910;2024-01-11T02:56:41;44.90;;;18.00;;
22628;SDS011;11481;53.694;9.910;2024-01-11T02:59:08;43.15;;;17.45;;
22628;SDS011;11481;53.694;9.910;2024-01-11T03:01:35;42.22;;;17.30;;
22628;SDS011;11481;53.694;9.910;2024-01-11T03:04:02;44.63;;;18.63;;
22628;SDS011;11481;53.694;9.910;2024-01-11T03:06:29;41.60;;;18.83;;
22628;SDS011;11481;53.694;9.910;2024-01-11T03:08:57;43.65;;;18.38;;
22628;SDS011;11481;53.694;9.910;2024-01-11T03:11:24;37.95;;;18.60;;
22628;SDS011;11481;53.694;9.910;2024-01-11T03:13:51;42.90;;;17.80;;
22628;SDS011;11481;53.694;9.910;2024-01-11T03:16:17;39.25;;;17.23;;
22628;SDS011;11481;53.694;9.910;2024-01-11T03:18:44;40.92;;;16.98;;
22628;SDS011;11481;53.694;9.910;2024-01-11T03:21:11;36.03;;;17.10;;
22628;SDS011;11481;53.694;9.910;2024-01-11T03:23:39;42.55;;;19.50;;
22628;SDS011;11481;53.694;9.910;2024-01-11T03:26:16;46.45;;;18.67;;
22628;SDS011;11481;53.694;9.910;2024-01-11T03:28:43;37.65;;;17.45;;
22628;SDS011;11481;53.694;9.910;2024-01-11T03:31:10;40.72;;;18.90;;
22628;SDS011;11481;53.694;9.910;2024-01-11T03:33:37;44.08;;;18.17;;
22628;SDS011;11481;53.694;9.910;2024-01-11T03:36:10;42.67;;;17.67;;
22628;SDS011;11481;53.694;9.910;2024-01-11T03:38:38;41.45;;;17.58;;
22628;SDS011;11481;53.694;9.910;2024-01-11T03:41:08;41.55;;;18.23;;
22628;SDS011;11481;53.694;9.910;2024-01-11T03:43:38;46.92;;;19.45;;
22628;SDS011;11481;53.694;9.910;2024-01-11T03:46:05;50.28;;;20.65;;
22628;SDS011;11481;53.694;9.910;2024-01-11T03:48:32;47.13;;;19.88;;
22628;SDS011;11481;53.694;9.910;2024-01-11T03:50:59;46.97;;;20.70;;
22628;SDS011;11481;53.694;9.910;2024-01-11T03:53:25;44.83;;;20.70;;
22628;SDS011;11481;53.694;9.910;2024-01-11T03:55:52;43.88;;;18.90;;
22628;SDS011;11481;53.694;9.910;2024-01-11T03:58:19;48.33;;;20.10;;
22628;SDS011;11481;53.694;9.910;2024-01-11T04:00:46;46.33;;;20.48;;
22628;SDS011;11481;53.694;9.910;2024-01-11T04:03:13;42.10;;;19.85;;
22628;SDS011;11481;53.694;9.910;2024-01-11T04:05:40;44.90;;;18.88;;
22628;SDS011;11481;53.694;9.910;2024-01-11T04:08:07;44.97;;;19.70;;
22628;SDS011;11481;53.694;9.910;2024-01-11T04:10:34;45.88;;;19.58;;
22628;SDS011;11481;53.694;9.910;2024-01-11T04:13:01;42.83;;;19.75;;
22628;SDS011;11481;53.694;9.910;2024-01-11T04:15:28;43.17;;;17.92;;
22628;SDS011;11481;53.694;9.910;2024-01-11T04:17:54;37.17;;;17.80;;
22628;SDS011;11481;53.694;9.910;2024-01-11T04:20:21;37.45;;;17.85;;
22628;SDS011;11481;53.694;9.910;2024-01-11T04:22:50;42.60;;;17.42;;
22628;SDS011;11481;53.694;9.910;2024-01-11T04:25:17;45.58;;;19.13;;
22628;SDS011;11481;53.694;9.910;2024-01-11T04:27:44;36.20;;;16.85;;
22628;SDS011;11481;53.694;9.910;2024-01-11T04:30:11;37.05;;;15.27;;
22628;SDS011;11481;53.694;9.910;2024-01-11T04:32:38;37.38;;;16.50;;
22628;SDS011;11481;53.694;9.910;2024-01-11T04:35:05;38.60;;;17.35;;
22628;SDS011;11481;53.694;9.910;2024-01-11T04:37:32;46.55;;;17.42;;
22628;SDS011;11481;53.694;9.910;2024-01-11T04:40:00;41.05;;;17.02;;
22628;SDS011;11481;53.694;9.910;2024-01-11T04:42:28;44.58;;;18.00;;
22628;SDS011;11481;53.694;9.910;2024-01-11T04:44:54;39.58;;;16.42;;
22628;SDS011;11481;53.694;9.910;2024-01-11T04:47:22;35.97;;;16.95;;
22628;SDS011;11481;53.694;9.910;2024-01-11T04:49:49;44.35;;;19.20;;
22628;SDS011;11481;53.694;9.910;2024-01-11T04:52:15;43.20;;;17.67;;
22628;SDS011;11481;53.694;9.910;2024-01-11T04:54:42;47.22;;;18.25;;
22628;SDS011;11481;53.694;9.910;2024-01-11T04:57:09;45.60;;;18.85;;
22628;SDS011;11481;53.694;9.910;2024-01-11T04:59:36;42.78;;;18.80;;
22628;SDS011;11481;53.694;9.910;2024-01-11T05:02:02;47.55;;;18.98;;
22628;SDS011;11481;53.694;9.910;2024-01-11T05:04:29;56.22;;;21.10;;
22628;SDS011;11481;53.694;9.910;2024-01-11T05:06:56;53.72;;;19.80;;
22628;SDS011;11481;53.694;9.910;2024-01-11T05:09:23;48.50;;;21.42;;
22628;SDS011;11481;53.694;9.910;2024-01-11T05:11:50;48.72;;;20.10;;
22628;SDS011;11481;53.694;9.910;2024-01-11T05:14:17;54.28;;;20.10;;
22628;SDS011;11481;53.694;9.910;2024-01-11T05:16:44;59.17;;;18.98;;
22628;SDS011;11481;53.694;9.910;2024-01-11T05:19:11;51.40;;;20.75;;
22628;SDS011;11481;53.694;9.910;2024-01-11T05:21:39;45.60;;;19.33;;
22628;SDS011;11481;53.694;9.910;2024-01-11T05:24:05;60.50;;;20.40;;
22628;SDS011;11481;53.694;9.910;2024-01-11T05:26:36;45.55;;;18.13;;
22628;SDS011;11481;53.694;9.910;2024-01-11T05:29:03;46.78;;;18.35;;
22628;SDS011;11481;53.694;9.910;2024-01-11T05:31:31;48.15;;;17.45;;
22628;SDS011;11481;53.694;9.910;2024-01-11T05:33:58;54.97;;;18.88;;
22628;SDS011;11481;53.694;9.910;2024-01-11T05:36:25;41.38;;;15.40;;
22628;SDS011;11481;53.694;9.910;2024-01-11T05:38:52;45.20;;;16.70;;
22628;SDS011;11481;53.694;9.910;2024-01-11T05:41:19;39.83;;;14.27;;
22628;SDS011;11481;53.694;9.910;2024-01-11T05:43:46;32.97;;;14.40;;
22628;SDS011;11481;53.694;9.910;2024-01-11T05:46:12;38.65;;;13.68;;
22628;SDS011;11481;53.694;9.910;2024-01-11T05:48:39;38.25;;;13.73;;
22628;SDS011;11481;53.694;9.910;2024-01-11T05:51:07;34.25;;;13.50;;
22628;SDS011;11481;53.694;9.910;2024-01-11T05:53:35;41.50;;;13.32;;
22628;SDS011;11481;53.694;9.910;2024-01-11T05:56:06;44.38;;;14.27;;
22628;SDS011;11481;53.694;9.910;2024-01-11T05:58:37;37.30;;;13.45;;
22628;SDS011;11481;53.694;9.910;2024-01-11T06:01:05;32.85;;;10.98;;
22628;SDS011;11481;53.694;9.910;2024-01-11T06:03:32;40.80;;;13.00;;
22628;SDS011;11481;53.694;9.910;2024-01-11T06:06:00;58.08;;;13.38;;
22628;SDS011;11481;53.694;9.910;2024-01-11T06:08:29;37.60;;;14.13;;
22628;SDS011;11481;53.694;9.910;2024-01-11T06:10:57;37.70;;;13.10;;
22628;SDS011;11481;53.694;9.910;2024-01-11T06:13:25;41.45;;;13.55;;
22628;SDS011;11481;53.694;9.910;2024-01-11T06:15:52;24.70;;;9.63;;
22628;SDS011;11481;53.694;9.910;2024-01-11T06:18:20;26.48;;;9.57;;
22628;SDS011;11481;53.694;9.910;2024-01-11T06:20:47;23.27;;;8.70;;
22628;SDS011;11481;53.694;9.910;2024-01-11T06:23:14;21.60;;;7.68;;
22628;SDS011;11481;53.694;9.910;2024-01-11T06:25:43;25.30;;;8.27;;
22628;SDS011;11481;53.694;9.910;2024-01-11T06:28:12;26.42;;;8.75;;
22628;SDS011;11481;53.694;9.910;2024-01-11T06:30:39;22.35;;;7.32;;
22628;SDS011;11481;53.694;9.910;2024-01-11T06:33:06;21.35;;;8.10;;
22628;SDS011;11481;53.694;9.910;2024-01-11T06:35:33;25.23;;;8.40;;
22628;SDS011;11481;53.694;9.910;2024-01-11T06:38:00;21.85;;;7.57;;
22628;SDS011;11481;53.694;9.910;2024-01-11T06:40:29;29.60;;;8.07;;
22628;SDS011;11481;53.694;9.910;2024-01-11T06:42:56;22.85;;;7.82;;
22628;SDS011;11481;53.694;9.910;2024-01-11T06:45:24;29.20;;;8.52;;
22628;SDS011;11481;53.694;9.910;2024-01-11T06:47:52;37.17;;;8.88;;
22628;SDS011;11481;53.694;9.910;2024-01-11T06:50:18;28.30;;;8.77;;
22628;SDS011;11481;53.694;9.910;2024-01-11T06:52:45;31.20;;;8.48;;
22628;SDS011;11481;53.694;9.910;2024-01-11T06:55:12;32.42;;;8.35;;
22628;SDS011;11481;53.694;9.910;2024-01-11T06:57:39;54.25;;;10.77;;
22628;SDS011;11481;53.694;9.910;2024-01-11T07:00:06;30.83;;;10.00;;
22628;SDS011;11481;53.694;9.910;2024-01-11T07:02:34;35.20;;;9.05;;
22628;SDS011;11481;53.694;9.910;2024-01-11T07:05:01;24.77;;;8.30;;
22628;SDS011;11481;53.694;9.910;2024-01-11T07:07:29;27.73;;;8.05;;
22628;SDS011;11481;53.694;9.910;2024-01-11T07:09:55;56.58;;;7.97;;
22628;SDS011;11481;53.694;9.910;2024-01-11T07:12:22;41.88;;;7.80;;
22628;SDS011;11481;53.694;9.910;2024-01-11T07:14:49;40.67;;;7.10;;
22628;SDS011;11481;53.694;9.910;2024-01-11T07:17:16;19.55;;;6.13;;
22628;SDS011;11481;53.694;9.910;2024-01-11T07:19:42;25.02;;;6.93;;
22628;SDS011;11481;53.694;9.910;2024-01-11T07:22:09;26.55;;;7.00;;
22628;SDS011;11481;53.694;9.910;2024-01-11T07:24:36;21.58;;;6.25;;
22628;SDS011;11481;53.694;9.910;2024-01-11T07:27:05;19.65;;;5.97;;
22628;SDS011;11481;53.694;9.910;2024-01-11T07:29:33;34.80;;;6.63;;
22628;SDS011;11481;53.694;9.910;2024-01-11T07:32:00;22.80;;;6.50;;
22628;SDS011;11481;53.694;9.910;2024-01-11T07:34:27;19.13;;;7.25;;
22628;SDS011;11481;53.694;9.910;2024-01-11T07:36:54;26.38;;;6.25;;
22628;SDS011;11481;53.694;9.910;2024-01-11T07:39:22;34.70;;;6.63;;
22628;SDS011;11481;53.694;9.910;2024-01-11T07:41:50;17.63;;;6.38;;
22628;SDS011;11481;53.694;9.910;2024-01-11T07:44:17;23.05;;;6.95;;
22628;SDS011;11481;53.694;9.910;2024-01-11T07:46:44;15.98;;;6.78;;
22628;SDS011;11481;53.694;9.910;2024-01-11T07:49:19;22.40;;;6.50;;
22628;SDS011;11481;53.694;9.910;2024-01-11T07:51:47;17.77;;;6.30;;
22628;SDS011;11481;53.694;9.910;2024-01-11T07:54:14;17.70;;;6.68;;
22628;SDS011;11481;53.694;9.910;2024-01-11T07:56:41;24.30;;;6.45;;
22628;SDS011;11481;53.694;9.910;2024-01-11T07:59:08;22.77;;;7.47;;
22628;SDS011;11481;53.694;9.910;2024-01-11T08:01:40;17.60;;;5.95;;
22628;SDS011;11481;53.694;9.910;2024-01-11T08:04:07;28.15;;;6.60;;
22628;SDS011;11481;53.694;9.910;2024-01-11T08:06:34;20.80;;;7.30;;
22628;SDS011;11481;53.694;9.910;2024-01-11T08:09:01;26.15;;;7.38;;
22628;SDS011;11481;53.694;9.910;2024-01-11T08:11:31;25.55;;;6.60;;
22628;SDS011;11481;53.694;9.910;2024-01-11T08:14:02;35.38;;;8.32;;
22628;SDS011;11481;53.694;9.910;2024-01-11T08:16:32;22.92;;;6.80;;
22628;SDS011;11481;53.694;9.910;2024-01-11T08:18:59;21.13;;;7.40;;
22628;SDS011;11481;53.694;9.910;2024-01-11T08:21:27;26.10;;;8.27;;
22628;SDS011;11481;53.694;9.910;2024-01-11T08:23:54;31.65;;;7.43;;
22628;SDS011;11481;53.694;9.910;2024-01-11T08:26:28;26.58;;;7.90;;
22628;SDS011;11481;53.694;9.910;2024-01-11T08:28:56;31.17;;;8.05;;
22628;SDS011;11481;53.694;9.910;2024-01-11T08:31:23;26.73;;;7.97;;
22628;SDS011;11481;53.694;9.910;2024-01-11T08:33:50;32.33;;;8.85;;
22628;SDS011;11481;53.694;9.910;2024-01-11T08:36:18;29.45;;;9.35;;
22628;SDS011;11481;53.694;9.910;2024-01-11T08:38:45;37.60;;;9.73;;
22628;SDS011;11481;53.694;9.910;2024-01-11T08:41:12;36.63;;;9.95;;
22628;SDS011;11481;53.694;9.910;2024-01-11T08:43:39;47.25;;;10.35;;
22628;SDS011;11481;53.694;9.910;2024-01-11T08:46:06;42.28;;;10.00;;
22628;SDS011;11481;53.694;9.910;2024-01-11T08:48:33;31.05;;;10.40;;
22628;SDS011;11481;53.694;9.910;2024-01-11T08:51:00;33.08;;;10.10;;
22628;SDS011;11481;53.694;9.910;2024-01-11T08:53:28;32.03;;;10.10;;
22628;SDS011;11481;53.694;9.910;2024-01-11T08:55:56;32.78;;;10.20;;
22628;SDS011;11481;53.694;9.910;2024-01-11T08:58:23;33.85;;;10.40;;
22628;SDS011;11481;53.694;9.910;2024-01-11T09:00:50;33.72;;;11.50;;
22628;SDS011;11481;53.694;9.910;2024-01-11T09:03:17;40.53;;;10.93;;
22628;SDS011;11481;53.694;9.910;2024-01-11T09:05:44;37.28;;;11.77;;
22628;SDS011;11481;53.694;9.910;2024-01-11T09:08:11;30.23;;;9.30;;
22628;SDS011;11481;53.694;9.910;2024-01-11T09:10:38;35.17;;;10.68;;
22628;SDS011;11481;53.694;9.910;2024-01-11T09:13:05;31.70;;;10.73;;
22628;SDS011;11481;53.694;9.910;2024-01-11T09:15:32;35.78;;;10.50;;
22628;SDS011;11481;53.694;9.910;2024-01-11T09:18:02;31.30;;;9.90;;
22628;SDS011;11481;53.694;9.910;2024-01-11T09:20:29;31.80;;;10.70;;
22628;SDS011;11481;53.694;9.910;2024-01-11T09:22:56;39.53;;;11.57;;
22628;SDS011;11481;53.694;9.910;2024-01-11T09:25:23;29.50;;;10.48;;
22628;SDS011;11481;53.694;9.910;2024-01-11T09:27:50;36.03;;;10.43;;
22628;SDS011;11481;53.694;9.910;2024-01-11T09:30:19;38.00;;;10.68;;
22628;SDS011;11481;53.694;9.910;2024-01-11T09:32:46;28.50;;;9.85;;
22628;SDS011;11481;53.694;9.910;2024-01-11T09:35:14;31.45;;;10.27;;
22628;SDS011;11481;53.694;9.910;2024-01-11T09:37:42;37.65;;;10.15;;
22628;SDS011;11481;53.694;9.910;2024-01-11T09:40:11;35.15;;;10.73;;
22628;SDS011;11481;53.694;9.910;2024-01-11T09:42:46;28.88;;;9.43;;
22628;SDS011;11481;53.694;9.910;2024-01-11T09:45:13;33.90;;;10.18;;
22628;SDS011;11481;53.694;9.910;2024-01-11T09:47:44;25.25;;;7.80;;
22628;SDS011;11481;53.694;9.910;2024-01-11T09:50:13;20.75;;;7.18;;
22628;SDS011;11481;53.694;9.910;2024-01-11T09:52:45;21.50;;;7.65;;
22628;SDS011;11481;53.694;9.910;2024-01-11T09:55:16;19.27;;;7.10;;
22628;SDS011;11481;53.694;9.910;2024-01-11T09:57:46;24.13;;;8.30;;
22628;SDS011;11481;53.694;9.910;2024-01-11T10:00:19;22.85;;;7.05;;
22628;SDS011;11481;53.694;9.910;2024-01-11T10:02:49;30.40;;;7.25;;
22628;SDS011;11481;53.694;9.910;2024-01-11T10:05:18;32.42;;;8.05;;
22628;SDS011;11481;53.694;9.910;2024-01-11T10:07:45;27.27;;;7.90;;
22628;SDS011;11481;53.694;9.910;2024-01-11T10:10:12;27.45;;;8.13;;
22628;SDS011;11481;53.694;9.910;2024-01-11T10:12:41;23.05;;;8.10;;
22628;SDS011;11481;53.694;9.910;2024-01-11T10:15:09;24.25;;;8.15;;
22628;SDS011;11481;53.694;9.910;2024-01-11T10:17:42;17.77;;;6.80;;
22628;SDS011;11481;53.694;9.910;2024-01-11T10:20:13;30.40;;;8.75;;
22628;SDS011;11481;53.694;9.910;2024-01-11T10:22:41;21.75;;;7.68;;
22628;SDS011;11481;53.694;9.910;2024-01-11T10:25:09;23.13;;;8.35;;
22628;SDS011;11481;53.694;9.910;2024-01-11T10:27:40;28.23;;;8.35;;
22628;SDS011;11481;53.694;9.910;2024-01-11T10:30:11;24.65;;;8.70;;
22628;SDS011;11481;53.694;9.910;2024-01-11T10:32:47;26.15;;;8.90;;
22628;SDS011;11481;53.694;9.910;2024-01-11T10:35:17;31.80;;;8.60;;
22628;SDS011;11481;53.694;9.910;2024-01-11T10:37:45;26.67;;;8.77;;
22628;SDS011;11481;53.694;9.910;2024-01-11T10:40:15;28.63;;;8.60;;
22628;SDS011;11481;53.694;9.910;2024-01-11T10:42:43;29.77;;;10.43;;
22628;SDS011;11481;53.694;9.910;2024-01-11T10:45:18;31.55;;;8.98;;
22628;SDS011;11481;53.694;9.910;2024-01-11T10:50:18;34.25;;;9.30;;
22628;SDS011;11481;53.694;9.910;2024-01-11T10:53:02;34.30;;;10.93;;
22628;SDS011;11481;53.694;9.910;2024-01-11T10:55:33;35.47;;;11.05;;
22628;SDS011;11481;53.694;9.910;2024-01-11T10:58:01;38.08;;;11.95;;
22628;SDS011;11481;53.694;9.910;2024-01-11T11:00:29;30.00;;;11.05;;
22628;SDS011;11481;53.694;9.910;2024-01-11T11:02:57;28.95;;;10.70;;
22628;SDS011;11481;53.694;9.910;2024-01-11T11:05:27;35.92;;;12.35;;
22628;SDS011;11481;53.694;9.910;2024-01-11T11:07:59;38.95;;;11.38;;
22628;SDS011;11481;53.694;9.910;2024-01-11T11:10:29;34.95;;;10.73;;
22628;SDS011;11481;53.694;9.910;2024-01-11T11:12:58;37.75;;;11.00;;
22628;SDS011;11481;53.694;9.910;2024-01-11T11:15:29;36.72;;;12.07;;
22628;SDS011;11481;53.694;9.910;2024-01-11T11:17:57;48.17;;;12.93;;
22628;SDS011;11481;53.694;9.910;2024-01-11T11:20:24;36.00;;;12.52;;
22628;SDS011;11481;53.694;9.910;2024-01-11T11:23:04;34.42;;;12.93;;
22628;SDS011;11481;53.694;9.910;2024-01-11T11:25:31;37.83;;;12.65;;
22628;SDS011;11481;53.694;9.910;2024-01-11T11:27:59;41.75;;;12.75;;
22628;SDS011;11481;53.694;9.910;2024-01-11T11:30:32;33.95;;;12.23;;
22628;SDS011;11481;53.694;9.910;2024-01-11T11:33:08;30.60;;;11.23;;
22628;SDS011;11481;53.694;9.910;2024-01-11T11:35:36;38.72;;;12.13;;
22628;SDS011;11481;53.694;9.910;2024-01-11T11:38:04;39.03;;;11.75;;
22628;SDS011;11481;53.694;9.910;2024-01-11T11:40:41;42.80;;;13.32;;
22628;SDS011;11481;53.694;9.910;2024-01-11T11:43:11;35.08;;;13.15;;
22628;SDS011;11481;53.694;9.910;2024-01-11T11:45:37;38.90;;;13.27;;
22628;SDS011;11481;53.694;9.910;2024-01-11T11:53:43;44.83;;;13.98;;
22628;SDS011;11481;53.694;9.910;2024-01-11T11:56:12;40.35;;;14.40;;
22628;SDS011;11481;53.694;9.910;2024-01-11T11:58:41;43.60;;;14.45;;
22628;SDS011;11481;53.694;9.910;2024-01-11T12:01:09;41.47;;;14.10;;
22628;SDS011;11481;53.694;9.910;2024-01-11T12:03:37;52.38;;;15.27;;
22628;SDS011;11481;53.694;9.910;2024-01-11T12:06:05;48.83;;;13.77;;
22628;SDS011;11481;53.694;9.910;2024-01-11T12:08:39;44.47;;;13.93;;
22628;SDS011;11481;53.694;9.910;2024-01-11T12:11:09;38.70;;;14.18;;
22628;SDS011;11481;53.694;9.910;2024-01-11T12:13:37;51.83;;;16.77;;
22628;SDS011;11481;53.694;9.910;2024-01-11T12:16:04;43.25;;;14.90;;
22628;SDS011;11481;53.694;9.910;2024-01-11T12:18:31;52.60;;;15.48;;
22628;SDS011;11481;53.694;9.910;2024-01-11T12:20:58;45.13;;;14.80;;
22628;SDS011;11481;53.694;9.910;2024-01-11T12:23:25;49.83;;;16.38;;
22628;SDS011;11481;53.694;9.910;2024-01-11T12:26:00;55.65;;;16.48;;
22628;SDS011;11481;53.694;9.910;2024-01-11T12:28:28;48.17;;;15.70;;
22628;SDS011;11481;53.694;9.910;2024-01-11T12:30:55;47.25;;;15.93;;
22628;SDS011;11481;53.694;9.910;2024-01-11T12:33:21;48.22;;;14.98;;
22628;SDS011;11481;53.694;9.910;2024-01-11T12:35:48;47.80;;;16.75;;
22628;SDS011;11481;53.694;9.910;2024-01-11T12:38:15;46.58;;;16.23;;
22628;SDS011;11481;53.694;9.910;2024-01-11T12:40:42;54.55;;;17.25;;
22628;SDS011;11481;53.694;9.910;2024-01-11T12:43:11;50.80;;;16.80;;
22628;SDS011;11481;53.694;9.910;2024-01-11T12:45:38;45.13;;;15.75;;
22628;SDS011;11481;53.694;9.910;2024-01-11T12:48:08;48.28;;;16.80;;
22628;SDS011;11481;53.694;9.910;2024-01-11T12:50:36;46.92;;;15.25;;
22628;SDS011;11481;53.694;9.910;2024-01-11T12:53:13;47.97;;;16.50;;
22628;SDS011;11481;53.694;9.910;2024-01-11T12:55:47;42.85;;;16.10;;
22628;SDS011;11481;53.694;9.910;2024-01-11T12:58:23;49.15;;;16.60;;
22628;SDS011;11481;53.694;9.910;2024-01-11T13:00:52;44.92;;;15.88;;
22628;SDS011;11481;53.694;9.910;2024-01-11T13:03:19;52.72;;;17.17;;
22628;SDS011;11481;53.694;9.910;2024-01-11T13:05:47;43.10;;;16.95;;
22628;SDS011;11481;53.694;9.910;2024-01-11T13:08:15;51.22;;;17.20;;
22628;SDS011;11481;53.694;9.910;2024-01-11T13:10:46;42.10;;;16.95;;
22628;SDS011;11481;53.694;9.910;2024-01-11T13:13:15;46.53;;;16.70;;
22628;SDS011;11481;53.694;9.910;2024-01-11T13:15:42;46.40;;;17.45;;
22628;SDS011;11481;53.694;9.910;2024-01-11T13:18:09;53.38;;;16.83;;
22628;SDS011;11481;53.694;9.910;2024-01-11T13:20:36;47.75;;;16.65;;
22628;SDS011;11481;53.694;9.910;2024-01-11T13:23:36;43.17;;;16.50;;
22628;SDS011;11481;53.694;9.910;2024-01-11T13:25:57;51.75;;;15.85;;
22628;SDS011;11481;53.694;9.910;2024-01-11T13:28:24;42.10;;;15.57;;
22628;SDS011;11481;53.694;9.910;2024-01-11T13:30:51;51.10;;;16.08;;
22628;SDS011;11481;53.694;9.910;2024-01-11T13:33:17;37.45;;;14.63;;
22628;SDS011;11481;53.694;9.910;2024-01-11T13:35:45;45.38;;;15.68;;
22628;SDS011;11481;53.694;9.910;2024-01-11T13:38:13;38.53;;;14.55;;
22628;SDS011;11481;53.694;9.910;2024-01-11T13:40:39;42.20;;;15.15;;
22628;SDS011;11481;53.694;9.910;2024-01-11T13:43:07;44.67;;;14.85;;
22628;SDS011;11481;53.694;9.910;2024-01-11T13:45:34;49.13;;;16.27;;
22628;SDS011;11481;53.694;9.910;2024-01-11T13:48:05;37.47;;;14.98;;
22628;SDS011;11481;53.694;9.910;2024-01-11T13:50:33;36.67;;;14.60;;
22628;SDS011;11481;53.694;9.910;2024-01-11T13:53:00;46.28;;;15.18;;
22628;SDS011;11481;53.694;9.910;2024-01-11T13:55:28;41.50;;;13.65;;
22628;SDS011;11481;53.694;9.910;2024-01-11T13:57:56;45.38;;;14.65;;
22628;SDS011;11481;53.694;9.910;2024-01-11T14:00:23;41.70;;;15.02;;
22628;SDS011;11481;53.694;9.910;2024-01-11T14:02:50;41.13;;;13.85;;
22628;SDS011;11481;53.694;9.910;2024-01-11T14:05:17;48.83;;;14.00;;
22628;SDS011;11481;53.694;9.910;2024-01-11T14:07:45;36.20;;;13.93;;
22628;SDS011;11481;53.694;9.910;2024-01-11T14:10:12;36.03;;;14.05;;
22628;SDS011;11481;53.694;9.910;2024-01-11T14:12:40;41.53;;;13.65;;
22628;SDS011;11481;53.694;9.910;2024-01-11T14:15:08;38.53;;;13.93;;
22628;SDS011;11481;53.694;9.910;2024-01-11T14:17:39;42.75;;;13.85;;
22628;SDS011;11481;53.694;9.910;2024-01-11T14:20:08;33.08;;;12.65;;
22628;SDS011;11481;53.694;9.910;2024-01-11T14:22:41;40.08;;;12.90;;
22628;SDS011;11481;53.694;9.910;2024-01-11T14:25:09;37.08;;;12.50;;
22628;SDS011;11481;53.694;9.910;2024-01-11T14:27:37;37.05;;;12.65;;
22628;SDS011;11481;53.694;9.910;2024-01-11T14:30:05;37.55;;;12.80;;
22628;SDS011;11481;53.694;9.910;2024-01-11T14:32:33;38.67;;;12.65;;
22628;SDS011;11481;53.694;9.910;2024-01-11T14:35:03;32.05;;;11.70;;
22628;SDS011;11481;53.694;9.910;2024-01-11T14:37:32;33.65;;;12.35;;
22628;SDS011;11481;53.694;9.910;2024-01-11T14:40:01;30.10;;;12.27;;